Time;durP1;ratioP1;P1;durP2;ratioP2;P2;SDS_P1;SDS_P2;PMS_P1;PMS_P2;Temp;Humidity;BMP_temperature;BMP_pressure;BME280_temperature;BME280_humidity;BME280_pressure;Samples;Min_cycle;Max_cycle;Signal;HPM_P1;HPM_P2
2024/03/07 00:02:28;;;;;;;18.20;8.80;;;;;;;1.33;89.09;101538.48;106600;1256;61226;-87
2024/03/07 00:05:02;;;;;;;19.70;8.80;;;;;;;1.34;89.47;101539.40;107573;1250;73358;-88
2024/03/07 00:07:36;;;;;;;17.40;7.90;;;;;;;1.35;89.95;101535.98;106257;1250;68371;-86
2024/03/07 00:10:16;;;;;;;19.70;9.80;;;;;;;1.30;91.09;101531.45;106509;1253;72671;-87
2024/03/07 00:12:51;;;;;;;16.10;8.90;;;;;;;1.32;91.03;101530.47;106221;1256;61227;-89
2024/03/07 00:15:31;;;;;;;16.00;8.60;;;;;;;1.35;91.30;101528.59;106310;1251;61322;-87
2024/03/07 00:18:11;;;;;;;17.90;8.40;;;;;;;1.38;91.56;101529.54;106496;1253;74618;-88
2024/03/07 00:20:42;;;;;;;24.00;9.10;;;;;;;1.36;92.20;101521.73;106408;1250;68294;-88
2024/03/07 00:23:22;;;;;;;18.40;9.30;;;;;;;1.32;92.49;101524.75;106607;1256;71420;-87
2024/03/07 00:26:02;;;;;;;18.80;9.30;;;;;;;1.30;92.15;101525.31;106554;1253;61266;-87
2024/03/07 00:28:39;;;;;;;14.90;8.20;;;;;;;1.35;92.64;101524.02;106598;1253;61212;-87
2024/03/07 00:31:19;;;;;;;17.00;8.90;;;;;;;1.39;93.38;101524.66;106524;1251;73361;-85
2024/03/07 00:33:53;;;;;;;15.10;8.30;;;;;;;1.36;92.08;101529.02;106553;1253;68414;-87
2024/03/07 00:36:46;;;;;;;16.40;8.20;;;;;;;1.39;91.60;101529.27;106663;1257;71400;-87
2024/03/07 00:39:26;;;;;;;16.40;7.90;;;;;;;1.38;90.75;101530.79;106378;1253;61359;-85
2024/03/07 00:42:00;;;;;;;17.20;9.00;;;;;;;1.35;90.62;101527.60;106466;1256;60565;-87
2024/03/07 00:44:40;;;;;;;16.80;8.20;;;;;;;1.35;89.77;101524.20;106369;1253;73744;-86
2024/03/07 00:47:20;;;;;;;15.10;7.80;;;;;;;1.30;89.96;101524.94;106223;1254;67951;-86
2024/03/07 00:49:48;;;;;;;15.40;8.00;;;;;;;1.26;89.21;101525.06;106212;1250;72436;-86
2024/03/07 00:52:28;;;;;;;15.70;8.20;;;;;;;1.23;88.95;101526.58;107122;1253;61329;-86
2024/03/07 00:55:08;;;;;;;16.70;8.00;;;;;;;1.19;89.37;101521.36;106283;1254;61362;-86
2024/03/07 00:57:42;;;;;;;16.60;8.20;;;;;;;1.17;88.41;101519.34;106512;1257;75065;-86
2024/03/07 01:00:23;;;;;;;17.90;7.90;;;;;;;1.16;89.18;101519.58;106285;1253;67525;-86
2024/03/07 01:02:57;;;;;;;14.80;7.50;;;;;;;1.13;87.53;101518.80;106375;1256;72410;-86
2024/03/07 01:05:31;;;;;;;15.60;7.70;;;;;;;1.10;88.77;101518.27;106544;1256;61404;-86
2024/03/07 01:08:12;;;;;;;16.20;8.20;;;;;;;1.05;89.22;101514.54;106838;1251;61322;-87
2024/03/07 01:10:46;;;;;;;16.20;8.30;;;;;;;1.04;90.05;101515.58;106202;1251;74615;-86
2024/03/07 01:13:26;;;;;;;14.10;7.80;;;;;;;1.00;90.87;101514.14;106539;1256;68380;-86
2024/03/07 01:16:06;;;;;;;16.70;8.10;;;;;;;0.96;90.39;101514.94;106340;1253;71733;-86
2024/03/07 01:18:37;;;;;;;16.70;9.00;;;;;;;1.04;89.14;101510.39;106308;1256;61252;-87
2024/03/07 01:21:17;;;;;;;18.30;9.40;;;;;;;1.04;89.46;101513.45;106236;1251;61267;-86
2024/03/07 01:23:57;;;;;;;18.10;9.40;;;;;;;1.03;90.45;101513.40;106910;1253;74695;-87
2024/03/07 01:26:33;;;;;;;18.00;9.70;;;;;;;0.99;91.11;101516.92;106589;1258;67852;-87
2024/03/07 01:29:13;;;;;;;14.10;7.60;;;;;;;1.01;92.19;101517.10;106440;1253;72718;-86
2024/03/07 01:31:49;;;;;;;17.40;9.50;;;;;;;1.03;92.62;101517.86;106520;1256;61244;-85
2024/03/07 01:34:26;;;;;;;14.80;8.00;;;;;;;1.04;92.04;101515.98;106508;1253;61352;-87
2024/03/07 01:37:08;;;;;;;17.20;8.90;;;;;;;1.02;92.24;101512.85;106096;1259;254483;-86
2024/03/07 01:39:42;;;;;;;17.60;9.50;;;;;;;1.02;92.05;101512.23;106793;1257;67613;-87
2024/03/07 01:42:22;;;;;;;20.30;9.60;;;;;;;1.02;91.24;101512.93;106436;1253;71454;-86
2024/03/07 01:45:02;;;;;;;18.10;9.60;;;;;;;1.02;90.47;101514.83;106456;1254;61359;-85
2024/03/07 01:47:38;;;;;;;18.40;9.90;;;;;;;0.99;90.03;101514.63;106473;1251;61250;-86
2024/03/07 01:50:18;;;;;;;19.30;9.50;;;;;;;1.01;89.45;101518.87;106322;1255;74627;-87
2024/03/07 01:52:58;;;;;;;17.50;9.10;;;;;;;1.02;89.15;101514.48;106587;1251;68408;-87
2024/03/07 01:55:33;;;;;;;17.70;8.80;;;;;;;0.97;89.97;101516.06;106613;1257;71136;-86
2024/03/07 01:58:13;;;;;;;16.20;8.80;;;;;;;0.97;91.04;101511.27;106392;1259;61232;-86
2024/03/07 02:00:43;;;;;;;16.70;8.70;;;;;;;0.92;90.96;101513.02;106487;1254;61392;-87
2024/03/07 02:03:23;;;;;;;19.70;10.00;;;;;;;0.97;91.22;101515.39;106112;1261;74726;-87
2024/03/07 02:06:03;;;;;;;20.40;9.60;;;;;;;0.95;91.44;101514.25;106475;1258;68723;-87
2024/03/07 02:08:44;;;;;;;16.50;8.80;;;;;;;0.93;91.88;101518.83;106970;1253;72742;-87
2024/03/07 02:11:24;;;;;;;17.60;8.70;;;;;;;0.93;91.99;101517.30;106418;1256;61234;-85
2024/03/07 02:14:04;;;;;;;16.30;9.40;;;;;;;0.94;91.72;101521.74;106334;1257;63060;-86
2024/03/07 02:16:44;;;;;;;18.30;9.20;;;;;;;0.91;91.23;101522.45;106502;1257;74755;-84
2024/03/07 02:19:24;;;;;;;15.10;8.90;;;;;;;0.86;90.46;101523.60;106345;1253;68413;-86
2024/03/07 02:22:04;;;;;;;16.60;9.70;;;;;;;0.87;90.04;101522.73;106658;1252;70717;-85
2024/03/07 02:24:45;;;;;;;15.50;9.00;;;;;;;0.90;89.38;101524.55;107547;1257;61227;-86
2024/03/07 02:27:25;;;;;;;15.70;8.50;;;;;;;0.90;89.97;101526.58;106412;1251;61221;-87
2024/03/07 02:30:08;;;;;;;16.50;9.00;;;;;;;0.92;90.40;101524.66;106579;1257;74634;-86
2024/03/07 02:32:54;;;;;;;16.50;8.40;;;;;;;0.89;90.74;101528.52;106359;1253;68844;-86
2024/03/07 02:35:35;;;;;;;16.40;9.20;;;;;;;0.92;90.68;101527.32;106426;1258;72451;-87
2024/03/07 02:38:17;;;;;;;20.00;9.90;;;;;;;0.91;91.02;101528.77;107422;1251;61292;-86
2024/03/07 02:40:58;;;;;;;17.80;9.50;;;;;;;0.89;91.73;101526.48;106485;1253;61452;-86
2024/03/07 02:43:38;;;;;;;19.10;9.30;;;;;;;0.89;91.51;101529.73;106397;1257;74582;-85
2024/03/07 02:46:18;;;;;;;15.40;8.60;;;;;;;0.86;92.74;101530.22;106517;1254;69153;-87
2024/03/07 02:48:58;;;;;;;18.40;9.40;;;;;;;0.91;92.64;101530.89;106304;1254;72735;-86
2024/03/07 02:51:39;;;;;;;19.30;8.80;;;;;;;0.88;92.79;101529.21;106475;1255;61340;-86
2024/03/07 02:54:19;;;;;;;17.60;8.60;;;;;;;0.84;93.98;101527.95;108056;1256;60818;-86
2024/03/07 02:56:59;;;;;;;18.00;8.90;;;;;;;0.92;93.90;101529.83;106333;1253;74672;-87
2024/03/07 02:59:39;;;;;;;16.00;8.30;;;;;;;0.93;94.44;101533.45;106541;1257;68428;-86
2024/03/07 03:02:19;;;;;;;13.70;7.30;;;;;;;0.96;93.60;101532.91;106638;1253;71381;-86
2024/03/07 03:04:59;;;;;;;14.10;8.00;;;;;;;0.97;92.87;101534.00;106498;1257;61164;-87
2024/03/07 03:07:39;;;;;;;17.30;8.80;;;;;;;0.97;92.99;101536.02;106456;1257;61151;-87
2024/03/07 03:10:20;;;;;;;18.20;8.80;;;;;;;0.97;92.45;101531.88;106478;1256;74632;-87
2024/03/07 03:13:01;;;;;;;17.00;8.20;;;;;;;0.97;91.89;101531.63;106916;1251;68389;-87
2024/03/07 03:15:42;;;;;;;15.10;8.90;;;;;;;0.96;93.24;101530.11;106388;1254;72686;-87
2024/03/07 03:18:21;;;;;;;14.50;7.70;;;;;;;0.96;93.55;101529.84;106566;1252;61247;-87
2024/03/07 03:21:02;;;;;;;16.00;8.40;;;;;;;0.95;93.41;101535.09;106686;1254;61147;-86
2024/03/07 03:23:42;;;;;;;14.90;8.00;;;;;;;0.95;93.05;101535.28;106475;1251;74816;-86
2024/03/07 03:26:22;;;;;;;16.90;8.80;;;;;;;0.94;92.42;101530.48;106617;1256;67416;-85
2024/03/07 03:29:02;;;;;;;16.50;8.40;;;;;;;0.96;92.70;101536.88;106419;1257;72698;-86
2024/03/07 03:31:42;;;;;;;18.30;7.90;;;;;;;0.96;92.53;101537.58;106657;1257;61247;-87
2024/03/07 03:34:22;;;;;;;14.50;7.30;;;;;;;0.96;92.55;101539.73;106464;1255;61167;-87
2024/03/07 03:37:02;;;;;;;14.30;7.30;;;;;;;0.95;92.16;101539.48;106577;1253;73373;-86
2024/03/07 03:39:42;;;;;;;15.20;7.60;;;;;;;0.96;92.92;101540.45;106256;1254;68543;-88
2024/03/07 03:42:22;;;;;;;12.40;7.60;;;;;;;0.94;92.37;101542.06;106528;1260;71455;-85
2024/03/07 03:45:06;;;;;;;14.70;7.80;;;;;;;0.91;91.79;101543.14;106787;1255;60364;-86
2024/03/07 03:47:46;;;;;;;14.20;7.50;;;;;;;0.97;91.72;101540.55;106429;1257;61314;-85
2024/03/07 07:48:06;;;;;;;17.40;8.00;;;;;;;1.92;79.71;101648.33;106375;1251;61822;-86
2024/03/07 07:50:40;;;;;;;17.80;8.90;;;;;;;1.96;78.41;101648.40;106435;1251;74991;-87
2024/03/07 07:53:14;;;;;;;14.00;8.40;;;;;;;2.01;80.80;101649.57;106528;1255;70663;-85
2024/03/07 07:55:43;;;;;;;16.50;8.40;;;;;;;2.09;81.51;101650.23;107611;1253;73685;-87
2024/03/07 07:58:17;;;;;;;17.00;8.40;;;;;;;2.17;81.89;101647.34;106318;1251;63002;-87
2024/03/07 08:00:52;;;;;;;14.90;8.90;;;;;;;2.20;79.77;101654.02;106489;1254;61171;-86
2024/03/07 08:03:26;;;;;;;16.00;8.10;;;;;;;2.16;78.74;101654.27;106414;1253;76600;-87
2024/03/07 08:05:54;;;;;;;16.60;8.90;;;;;;;2.11;79.17;101654.02;106379;1252;70651;-85
2024/03/07 08:08:23;;;;;;;19.30;9.30;;;;;;;2.10;80.13;101655.05;106520;1254;73568;-87
2024/03/07 08:10:57;;;;;;;16.30;8.70;;;;;;;2.11;80.07;101658.30;106198;1253;61234;-85
2024/03/07 08:13:25;;;;;;;16.60;8.60;;;;;;;2.13;79.39;101659.60;106571;1253;62165;-86
2024/03/07 08:15:55;;;;;;;15.60;9.80;;;;;;;2.14;79.32;101663.27;106713;1252;76269;-86
2024/03/07 08:18:23;;;;;;;18.90;9.80;;;;;;;2.15;78.66;101661.56;106376;1257;71953;-86
2024/03/07 08:20:58;;;;;;;16.10;8.80;;;;;;;2.19;79.61;101661.42;106358;1254;75417;-86
2024/03/07 08:23:26;;;;;;;13.40;8.30;;;;;;;2.22;79.24;101660.89;106327;1254;61844;-86
2024/03/07 08:25:54;;;;;;;15.20;8.60;;;;;;;2.26;79.30;101660.04;106412;1251;62256;-86
2024/03/07 08:28:23;;;;;;;17.20;9.10;;;;;;;2.29;79.34;101663.45;106417;1253;75575;-86
2024/03/07 08:30:59;;;;;;;17.30;8.60;;;;;;;2.26;77.49;101662.86;107431;1253;69849;-86
2024/03/07 08:33:26;;;;;;;14.70;8.40;;;;;;;2.27;74.64;101660.83;106463;1251;71932;-85
2024/03/07 08:35:55;;;;;;;17.80;9.50;;;;;;;2.25;72.58;101662.82;106512;1253;61383;-86
2024/03/07 08:38:29;;;;;;;18.50;9.30;;;;;;;2.24;73.37;101659.04;106425;1253;61319;-86
2024/03/07 08:40:57;;;;;;;18.00;9.30;;;;;;;2.21;73.50;101658.70;106343;1253;75397;-87
2024/03/07 08:43:31;;;;;;;15.20;8.50;;;;;;;2.20;74.55;101657.50;106681;1252;70447;-85
2024/03/07 08:46:03;;;;;;;16.90;9.20;;;;;;;2.18;76.04;101661.08;106358;1251;73752;-86
2024/03/07 08:48:38;;;;;;;19.50;9.90;;;;;;;2.25;74.41;101663.73;106423;1254;61328;-88
2024/03/07 08:51:06;;;;;;;19.30;10.50;;;;;;;2.29;75.57;101663.30;106289;1253;61257;-86
2024/03/07 08:53:36;;;;;;;20.00;10.90;;;;;;;2.31;77.20;101662.73;106417;1254;74066;-86
2024/03/07 08:56:04;;;;;;;15.10;8.20;;;;;;;2.35;76.68;101663.27;106462;1256;69780;-87
2024/03/07 08:58:38;;;;;;;17.10;9.90;;;;;;;2.34;74.62;101662.73;106697;1257;72600;-87
2024/03/07 09:01:05;;;;;;;15.10;8.10;;;;;;;2.33;74.30;101664.50;106315;1259;61289;-85
2024/03/07 09:03:33;;;;;;;17.40;9.80;;;;;;;2.33;75.92;101664.73;106467;1255;63094;-86
2024/03/07 09:06:07;;;;;;;18.90;9.20;;;;;;;2.35;76.07;101662.98;106461;1254;76889;-88
2024/03/07 09:08:36;;;;;;;18.00;9.30;;;;;;;2.39;74.87;101669.23;106305;1258;68901;-86
2024/03/07 09:11:04;;;;;;;18.10;9.90;;;;;;;2.35;72.36;101665.35;106276;1256;72796;-87
2024/03/07 09:13:31;;;;;;;16.90;9.30;;;;;;;2.34;73.70;101663.88;106805;1253;61250;-86
2024/03/07 09:16:06;;;;;;;21.80;10.80;;;;;;;2.36;74.69;101671.14;106659;1253;61315;-87
2024/03/07 09:18:34;;;;;;;17.00;8.90;;;;;;;2.40;72.85;101670.61;106506;1253;74899;-87
2024/03/07 09:21:02;;;;;;;14.30;8.50;;;;;;;2.38;72.82;101671.88;106417;1251;70341;-88
2024/03/07 09:23:30;;;;;;;18.50;9.10;;;;;;;2.36;74.11;101669.71;106416;1253;75561;-86
2024/03/07 09:25:58;;;;;;;20.80;11.60;;;;;;;2.37;73.47;101673.70;106442;1253;61295;-87
2024/03/07 09:28:27;;;;;;;16.80;9.40;;;;;;;2.40;72.80;101671.73;106931;1253;61116;-86
2024/03/07 09:30:59;;;;;;;18.70;8.80;;;;;;;2.35;74.51;101675.76;106449;1257;76678;-85
2024/03/07 09:33:34;;;;;;;;;;;;;;;2.41;75.80;101669.25;106453;1256;70632;-86
2024/03/07 09:36:02;;;;;;;19.10;10.30;;;;;;;2.45;74.48;101668.19;106372;1257;73732;-87
2024/03/07 09:38:31;;;;;;;16.50;9.70;;;;;;;2.44;74.59;101670.06;106092;1253;61261;-86
2024/03/07 09:40:59;;;;;;;18.70;9.40;;;;;;;2.41;74.86;101664.19;106386;1253;61157;-87
2024/03/07 09:43:34;;;;;;;17.20;9.10;;;;;;;2.43;76.88;101663.13;106284;1253;74575;-89
2024/03/07 09:46:03;;;;;;;14.30;8.10;;;;;;;2.46;77.60;101661.73;106270;1257;69534;-87
2024/03/07 09:48:31;;;;;;;19.10;8.70;;;;;;;2.54;74.46;101661.46;106211;1251;74240;-88
2024/03/07 09:51:05;;;;;;;17.30;9.50;;;;;;;2.59;75.93;101662.27;107122;1251;61703;-88
2024/03/07 09:53:34;;;;;;;15.90;9.20;;;;;;;2.65;76.80;101662.45;107801;1253;61282;-87
2024/03/07 09:56:02;;;;;;;15.70;8.40;;;;;;;2.76;77.52;101659.95;108462;1251;75604;-89
2024/03/07 09:58:33;;;;;;;15.60;9.30;;;;;;;2.85;77.15;101661.48;106235;1253;70803;-86
2024/03/07 10:01:11;;;;;;;15.10;8.50;;;;;;;2.94;77.03;101657.80;108144;1253;74199;-86
2024/03/07 10:03:40;;;;;;;17.40;9.70;;;;;;;3.00;73.81;101656.51;106406;1256;61363;-87
2024/03/07 10:06:09;;;;;;;17.00;9.10;;;;;;;2.99;70.70;101655.80;106430;1251;62772;-86
2024/03/07 10:08:38;;;;;;;17.00;8.90;;;;;;;2.98;70.63;101661.78;106059;1257;75461;-86
2024/03/07 10:11:14;;;;;;;18.00;10.10;;;;;;;2.83;69.76;101663.15;106357;1254;69146;-88
2024/03/07 10:13:42;;;;;;;15.60;9.10;;;;;;;2.80;70.72;101659.60;106188;1253;74858;-88
2024/03/07 10:16:11;;;;;;;16.60;10.10;;;;;;;2.79;69.59;101660.55;106432;1256;61285;-87
2024/03/07 10:18:46;;;;;;;21.30;10.40;;;;;;;2.75;69.90;101658.07;106347;1257;61608;-86
2024/03/07 10:21:14;;;;;;;17.00;9.10;;;;;;;2.75;72.98;101657.95;106502;1256;77056;-87
2024/03/07 10:23:46;;;;;;;19.80;10.30;;;;;;;2.78;73.37;101654.39;106203;1253;70216;-87
2024/03/07 10:26:20;;;;;;;17.90;10.40;;;;;;;2.80;74.05;101655.65;106239;1257;74748;-87
2024/03/07 10:28:54;;;;;;;16.80;9.60;;;;;;;2.84;74.42;101652.80;106385;1254;61353;-87
2024/03/07 10:31:32;;;;;;;16.30;9.30;;;;;;;2.85;75.65;101654.48;106404;1254;62094;-87
2024/03/07 10:34:08;;;;;;;17.20;9.60;;;;;;;2.88;76.16;101656.91;106457;1253;76952;-86
2024/03/07 10:36:43;;;;;;;16.40;9.50;;;;;;;2.91;75.62;101655.97;106390;1253;68180;-86
2024/03/07 10:39:21;;;;;;;22.00;10.90;;;;;;;2.93;75.96;101657.39;106659;1253;75020;-87
2024/03/07 10:41:49;;;;;;;19.10;9.60;;;;;;;2.93;76.07;101655.40;106453;1254;61457;-86
2024/03/07 10:44:28;;;;;;;20.80;10.50;;;;;;;2.93;76.58;101657.89;106407;1251;61346;-87
2024/03/07 10:47:03;;;;;;;16.40;9.30;;;;;;;2.95;74.26;101656.98;106205;1252;75747;-87
2024/03/07 10:49:38;;;;;;;16.20;8.60;;;;;;;2.88;72.83;101656.33;106504;1257;70642;-89
2024/03/07 10:52:13;;;;;;;17.40;9.80;;;;;;;2.83;72.99;101654.17;106308;1254;75063;-88
2024/03/07 10:55:05;;;;;;;17.70;9.00;;;;;;;2.81;74.03;101652.09;106489;1251;61262;-87
2024/03/07 10:57:53;;;;;;;20.40;9.80;;;;;;;2.86;75.13;101654.85;106799;1253;62128;-90
2024/03/07 11:00:35;;;;;;;19.00;9.00;;;;;;;2.90;72.81;101652.84;107463;1253;73662;-88
2024/03/07 11:03:11;;;;;;;18.50;9.60;;;;;;;2.87;70.78;101647.67;106380;1257;68249;-87
2024/03/07 11:05:39;;;;;;;18.90;10.50;;;;;;;2.88;70.82;101648.46;106395;1251;74781;-87
2024/03/07 11:08:11;;;;;;;18.80;9.40;;;;;;;2.91;72.41;101650.45;106481;1254;61798;-87
2024/03/07 11:10:50;;;;;;;15.40;8.70;;;;;;;2.92;73.63;101649.24;106429;1253;61325;-88
2024/03/07 11:13:24;;;;;;;14.70;8.60;;;;;;;2.94;73.43;101648.55;106522;1255;76988;-88
2024/03/07 11:15:51;;;;;;;12.90;7.80;;;;;;;2.94;71.15;101648.02;106297;1252;70759;-87
2024/03/07 11:18:20;;;;;;;15.10;9.40;;;;;;;2.93;71.71;101647.91;106322;1254;73805;-89
2024/03/07 11:20:57;;;;;;;17.90;9.30;;;;;;;2.95;74.36;101646.92;106462;1253;61884;-88
2024/03/07 11:23:38;;;;;;;15.40;8.40;;;;;;;2.99;74.27;101644.46;106372;1251;61599;-87
2024/03/07 11:26:07;;;;;;;19.40;10.10;;;;;;;3.05;72.85;101643.70;106438;1256;76439;-87
2024/03/07 11:28:42;;;;;;;17.60;9.40;;;;;;;3.09;71.49;101651.29;106351;1251;70592;-88
2024/03/07 11:31:30;;;;;;;17.80;9.80;;;;;;;3.00;71.58;101650.29;106232;1254;73479;-87
2024/03/07 11:34:22;;;;;;;27.20;13.60;;;;;;;2.98;72.27;101651.35;106299;1253;61345;-86
2024/03/07 11:36:52;;;;;;;19.60;10.10;;;;;;;2.95;72.40;101650.02;106368;1253;61330;-87
2024/03/07 11:39:46;;;;;;;19.50;10.80;;;;;;;2.92;72.34;101649.34;106398;1255;76923;-87
2024/03/07 11:42:26;;;;;;;17.40;10.40;;;;;;;2.85;71.43;101648.49;106514;1253;71454;-87
2024/03/07 11:45:03;;;;;;;21.50;11.20;;;;;;;2.79;72.26;101646.68;106579;1253;72603;-89
2024/03/07 11:47:37;;;;;;;16.70;8.90;;;;;;;2.76;73.62;101646.66;106382;1258;62350;-89
2024/03/07 23:48:21;;;;;;;16.00;8.30;;;;;;;0.18;88.83;101582.63;106470;1251;61369;-88
2024/03/07 23:51:02;;;;;;;17.70;8.90;;;;;;;0.18;89.05;101578.66;106460;1257;73759;-88
2024/03/07 23:53:42;;;;;;;15.40;8.10;;;;;;;0.18;89.10;101577.02;106384;1258;68676;-86
2024/03/07 23:56:23;;;;;;;15.30;8.10;;;;;;;0.20;89.05;101578.20;106285;1255;72474;-86
2024/03/07 23:59:05;;;;;;;16.00;8.10;;;;;;;0.19;89.30;101577.02;107485;1254;61323;-85
